Meath Environmental Platform

Observations for Trim Patrick St

Time AQI Temp °C Hum % Pres Pa CO μg/m³ H₂S μg/m³ NO μg/m³ NO₂ μg/m³ O₃ μg/m³ SO₂ μg/m³ PM1 μg/m³ PM2.5 μg/m³ PM10 μg/m³
Sunday 2 August 2026
13:44 2 27.7 37 69,132 0 3.68 1.35 16.61 101.61 12.27 3.71 10.43 11.47
13:43 2 27.7 36 69,108 0 0 1.33 20.27 88.51 10.15 3.71 10.47 11.51
13:42 2 27.8 38 69,104 0 0.79 1.41 14.71 99.84 11.55 2 8.77 9.65
13:41 2 27.8 36 69,100 0 0 1.33 20.26 93.89 10.63 2 8.91 9.8
13:40 2 27.8 36 69,092 0 0 1.33 14.94 77.54 9.83 4.57 10.48 11.53
13:39 2 27.9 36 69,086 0 0 1.33 15.37 87.54 10.75 4.57 9.66 10.63
13:38 2 27.9 36 69,074 0 0 1.31 23.45 91.78 9.07 2 8.91 9.8
13:37 2 27.9 37 69,086 0 0 1.37 16.38 75.56 10.92 2.86 9.62 10.58
13:36 2 27.9 36 69,102 0 0 1.34 20.29 93.61 10.1 2.86 8.9 9.79
13:35 2 28 36 69,096 0 0 1.39 19.69 94.62 10.24 3.71 9.65 10.61
13:34 2 27.9 36 69,118 0 0 1.41 16.72 83.98 10.52 3.71 8.86 9.74
13:33 2 28 36 69,116 0 0 1.39 18.8 142.17 11.2 2.86 8.88 9.76
13:32 2 28 36 69,118 0 0 1.38 16.04 92.49 10.13 3.71 10.48 11.52
13:31 2 28.1 37 69,120 0 0 1.41 16.39 87.2 10.41 2.86 8.84 9.73
13:30 2 28.1 36 69,118 0 0 1.38 14.96 117.73 11.88 3.71 8.9 9.79
13:29 2 28.1 35 69,120 0 0 1.38 15.84 101.36 11.26 4.57 11.31 12.44
13:28 2 28.2 36 69,149 0 0 1.42 13.45 78.29 10.11 3.71 11.23 12.35
13:27 2 28.2 36 69,157 0 0 1.41 16.04 85.46 9.8 3.71 8.86 9.75
13:26 2 28.2 36 69,136 0 0 1.41 13.77 73.54 9.68 2.86 8.86 9.75
13:25 2 28.2 36 69,167 0 0 1.41 22.16 139.93 10.47 3.71 9.66 10.63